KMWA/MWA METAR and TAF weather

Enter ICAO airport designator
Station Type Date Time Source
KMWA METAR 2020/07/15 04:55 UTC NOAA

KMWA 150455Z AUTO 14003KT 10SM CLR 23/20 A3002 RMK AO2 T02260204


Station Type Date Time Source
KMWA Decoded METAR 2020/07/15 04:55 UTC NOAA

Marion, Williamson County Regional Airport, IL, United States (KMWA) 37-45-01N 089-00-04W
Jul 15, 2020 - 12:55 AM EDT / 2020.07.15 0455 UTC
Wind: from the SE (140 degrees) at 3 MPH (3 KT):0
Visibility: 10 mile(s):0
Sky conditions: clear
Temperature: 72.7 F (22.6 C)
Dew Point: 68.7 F (20.4 C)
Relative Humidity: 87%
Pressure (altimeter): 30.02 in. Hg (1016 hPa)
ob: KMWA 150455Z AUTO 14003KT 10SM CLR 23/20 A3002 RMK AO2 T02260204
cycle: 5

Station Type Date Time Source
KMWA TAF UTC NOAA

Error!

Example: see airport list